JOHN F KENNEDY INTL

KJFK (JFK)
New York, New York
Towered

Vatsim Metar:
KJFK 251751Z 18009KT 10SM FEW065 FEW150 BKN250 13/07 A2997 RMK AO2 SLP149 T01280067 10144 20106 57006

No ATC Online

Traffic

Inbound:
Ident
Type
Name
ETA
Phase
DAL2502
AT72/G
Shane McMahon EINN
Taxiing In
DAL1543
A319/L
Chris Hargreaves KFFC
18:38 Z
Cruse
KLM95R
H/B789/X
Daniel Westdijk EHRD
19:41 Z
Cruse
NRS17F
H/B789/L
Marcus Hudson EGNF
20:50 Z
Cruse
TC-JBA
B737/L
Bartu Yalcin
02:52 Z
Descent
N1975
B737/L
Sam Ruiz
Unknown
DLH400
H/B748/X
Christian Rodrigues EDDF
Unknown

Outbound:
Ident
Type
Name
Destination
Phase
JBU423
A320/L
Eduardo Hart
KLAX
Boarding